createdAt,value
2023-04-29T00:00:15.912Z,15.50
2023-04-29T00:02:42.972Z,18.40
2023-04-29T00:05:10.548Z,17.23
2023-04-29T00:07:37.519Z,13.27
2023-04-29T00:10:04.612Z,12.85
2023-04-29T00:12:32.507Z,12.60
2023-04-29T00:15:00.825Z,12.93
2023-04-29T00:17:28.224Z,11.82
2023-04-29T00:19:54.956Z,9.43
2023-04-29T00:22:22.780Z,11.43
2023-04-29T00:24:49.390Z,10.15
2023-04-29T00:27:16.917Z,10.35
2023-04-29T00:29:43.838Z,9.80
2023-04-29T00:32:10.679Z,11.73
2023-04-29T00:34:37.538Z,8.45
2023-04-29T00:37:04.195Z,8.32
2023-04-29T00:39:30.877Z,8.95
2023-04-29T00:41:57.694Z,7.53
2023-04-29T00:44:24.733Z,7.60
2023-04-29T00:46:51.435Z,7.35
2023-04-29T00:49:18.197Z,7.95
2023-04-29T00:51:45.355Z,7.65
2023-04-29T00:54:13.033Z,7.55
2023-04-29T00:56:43.294Z,7.30
2023-04-29T00:59:10.299Z,7.60
2023-04-29T01:01:37.634Z,7.40
2023-04-29T01:04:05.717Z,6.53
2023-04-29T01:07:03.129Z,6.90
2023-04-29T01:09:41.348Z,6.47
2023-04-29T01:12:20.544Z,6.85
2023-04-29T01:15:02.626Z,7.05
2023-04-29T01:17:36.242Z,5.82
2023-04-29T01:20:04.817Z,6.35
2023-04-29T01:22:31.698Z,4.88
2023-04-29T01:24:58.345Z,4.25
2023-04-29T01:27:37.281Z,5.53
2023-04-29T01:30:10.016Z,6.63
2023-04-29T01:33:18.226Z,4.55
2023-04-29T01:36:00.802Z,4.88
2023-04-29T01:38:40.224Z,5.63
2023-04-29T01:41:09.762Z,5.15
2023-04-29T01:43:37.938Z,5.15
2023-04-29T01:46:09.801Z,5.10
2023-04-29T01:48:37.475Z,5.28
2023-04-29T01:51:06.507Z,6.07
2023-04-29T01:53:33.621Z,7.80
2023-04-29T01:56:00.418Z,7.22
2023-04-29T01:58:28.206Z,6.78
2023-04-29T02:00:55.664Z,5.20
2023-04-29T02:03:22.431Z,6.43
2023-04-29T02:05:50.573Z,6.63
2023-04-29T02:08:18.195Z,5.65
2023-04-29T02:10:54.064Z,5.35
2023-04-29T02:13:20.997Z,5.95
2023-04-29T02:15:48.136Z,5.80
2023-04-29T02:18:14.808Z,5.70
2023-04-29T02:20:41.830Z,5.78
2023-04-29T02:23:08.608Z,4.93
2023-04-29T02:25:35.233Z,5.60
2023-04-29T02:28:02.173Z,5.50
2023-04-29T02:30:30.355Z,5.82
2023-04-29T02:32:57.341Z,7.82
2023-04-29T02:35:24.060Z,8.20
2023-04-29T02:37:50.725Z,5.85
2023-04-29T02:40:18.534Z,5.03
2023-04-29T02:42:45.177Z,6.18
2023-04-29T02:45:12.136Z,5.30
2023-04-29T02:47:38.814Z,5.38
2023-04-29T02:50:06.260Z,4.50
2023-04-29T02:52:32.934Z,4.45
2023-04-29T02:55:03.174Z,6.40
2023-04-29T02:57:30.601Z,3.75
2023-04-29T02:59:57.487Z,4.05
2023-04-29T03:02:24.301Z,4.97
2023-04-29T03:04:51.207Z,3.88
2023-04-29T03:07:18.166Z,3.53
2023-04-29T03:09:44.909Z,4.53
2023-04-29T03:12:11.738Z,4.65
2023-04-29T03:14:38.652Z,3.65
2023-04-29T03:17:05.381Z,3.92
2023-04-29T03:19:32.199Z,4.90
2023-04-29T03:21:58.899Z,3.83
2023-04-29T03:24:25.587Z,3.45
2023-04-29T03:26:52.194Z,3.75
2023-04-29T03:29:18.829Z,4.28
2023-04-29T03:31:45.788Z,3.63
2023-04-29T03:34:14.512Z,4.18
2023-04-29T03:36:41.130Z,3.78
2023-04-29T03:39:07.797Z,4.18
2023-04-29T03:41:34.426Z,4.25
2023-04-29T03:44:01.198Z,3.83
2023-04-29T03:46:28.239Z,4.10
2023-04-29T03:48:58.051Z,4.15
2023-04-29T03:51:25.420Z,3.90
2023-04-29T03:53:54.713Z,4.82
2023-04-29T03:56:21.334Z,4.13
2023-04-29T03:58:48.060Z,3.72
2023-04-29T04:01:15.466Z,4.45
2023-04-29T04:03:43.527Z,3.65
2023-04-29T04:06:10.324Z,4.25
2023-04-29T04:08:36.986Z,4.13
2023-04-29T04:11:04.662Z,3.97
2023-04-29T04:13:31.514Z,4.53
2023-04-29T04:15:58.437Z,3.80
2023-04-29T04:18:25.087Z,4.90
2023-04-29T04:20:51.697Z,3.65
2023-04-29T04:23:18.374Z,3.15
2023-04-29T04:25:49.173Z,3.70
2023-04-29T04:28:15.923Z,3.33
2023-04-29T04:30:43.060Z,3.15
2023-04-29T04:33:10.765Z,2.97
2023-04-29T04:35:37.558Z,3.60
2023-04-29T04:38:04.352Z,3.55
2023-04-29T04:40:30.962Z,3.53
2023-04-29T04:42:57.649Z,3.53
2023-04-29T04:45:24.380Z,3.30
2023-04-29T04:47:51.096Z,3.28
2023-04-29T04:50:17.851Z,3.53
2023-04-29T04:52:44.489Z,3.47
2023-04-29T04:55:13.845Z,2.92
2023-04-29T04:57:42.839Z,2.88
2023-04-29T05:00:10.164Z,3.28
2023-04-29T05:02:37.096Z,3.08
2023-04-29T05:05:04.032Z,3.88
2023-04-29T05:07:30.709Z,3.35
2023-04-29T05:09:57.869Z,3.17
2023-04-29T05:12:26.758Z,3.30
2023-04-29T05:14:53.781Z,4.30
2023-04-29T05:17:20.413Z,3.17
2023-04-29T05:19:47.051Z,4.50
2023-04-29T05:22:13.764Z,3.97
2023-04-29T05:24:40.397Z,3.17
2023-04-29T05:27:09.331Z,3.17
2023-04-29T05:29:36.020Z,3.33
2023-04-29T05:32:02.844Z,3.72
2023-04-29T05:34:29.545Z,3.20
2023-04-29T05:36:57.424Z,3.22
2023-04-29T05:39:25.021Z,3.95
2023-04-29T05:41:51.696Z,4.20
2023-04-29T05:44:18.442Z,3.00
2023-04-29T05:46:46.282Z,3.42
2023-04-29T05:49:12.950Z,3.03
2023-04-29T05:51:42.458Z,4.00
2023-04-29T05:54:09.100Z,3.90
2023-04-29T05:56:36.011Z,3.35
2023-04-29T05:59:02.654Z,3.63
2023-04-29T06:01:29.350Z,4.35
2023-04-29T06:03:56.734Z,3.85
2023-04-29T06:06:23.731Z,4.07
2023-04-29T06:08:50.507Z,3.65
2023-04-29T06:11:17.186Z,4.00
2023-04-29T06:13:43.909Z,4.90
2023-04-29T06:16:12.048Z,4.90
2023-04-29T06:18:38.835Z,4.22
2023-04-29T06:21:08.331Z,4.32
2023-04-29T06:23:34.991Z,4.53
2023-04-29T06:26:01.875Z,4.93
2023-04-29T06:28:29.914Z,4.80
2023-04-29T06:30:57.017Z,5.30
2023-04-29T06:33:23.906Z,4.97
2023-04-29T06:35:50.570Z,4.60
2023-04-29T06:38:17.230Z,4.68
2023-04-29T06:40:43.846Z,5.95
2023-04-29T06:43:10.781Z,6.80
2023-04-29T06:45:37.588Z,5.85
2023-04-29T06:48:04.624Z,6.20
2023-04-29T06:50:31.672Z,7.20
2023-04-29T06:52:59.575Z,6.70
2023-04-29T06:55:26.404Z,5.68
2023-04-29T06:57:53.125Z,7.85
2023-04-29T07:00:21.190Z,7.05
2023-04-29T07:02:50.708Z,6.18
2023-04-29T07:05:17.607Z,6.22
2023-04-29T07:07:45.310Z,6.20
2023-04-29T07:10:12.113Z,6.57
2023-04-29T07:12:38.934Z,7.03
2023-04-29T07:15:06.217Z,6.45
2023-04-29T07:17:33.005Z,5.75
2023-04-29T07:19:59.639Z,5.68
2023-04-29T07:22:26.505Z,5.95
2023-04-29T07:24:55.016Z,5.85
2023-04-29T07:27:21.810Z,4.97
2023-04-29T07:29:48.563Z,6.07
2023-04-29T07:32:15.944Z,6.75
2023-04-29T07:34:43.600Z,5.90
2023-04-29T07:37:10.246Z,5.93
2023-04-29T07:39:37.301Z,5.22
2023-04-29T07:42:04.652Z,5.82
2023-04-29T07:44:32.331Z,5.82
2023-04-29T07:46:58.945Z,6.40
2023-04-29T07:49:26.320Z,6.78
2023-04-29T07:51:52.981Z,6.22
2023-04-29T07:54:19.788Z,6.60
2023-04-29T07:56:46.731Z,6.75
2023-04-29T07:59:13.554Z,6.72
2023-04-29T08:01:43.550Z,6.75
2023-04-29T08:04:11.167Z,6.90
2023-04-29T08:06:38.294Z,7.07
2023-04-29T08:09:05.189Z,6.72
2023-04-29T08:11:32.034Z,7.35
2023-04-29T08:14:00.229Z,6.90
2023-04-29T08:16:27.173Z,7.18
2023-04-29T08:18:54.410Z,8.70
2023-04-29T08:21:21.309Z,8.05
2023-04-29T08:23:48.029Z,7.63
2023-04-29T08:26:14.721Z,8.07
2023-04-29T08:28:41.541Z,7.22
2023-04-29T08:31:08.346Z,7.63
2023-04-29T08:33:35.405Z,7.10
2023-04-29T08:36:03.870Z,7.20
2023-04-29T08:38:31.181Z,6.88
2023-04-29T08:40:58.529Z,6.22
2023-04-29T08:43:26.523Z,7.78
2023-04-29T08:45:53.724Z,7.57
2023-04-29T08:48:21.377Z,7.07
2023-04-29T08:50:48.039Z,6.95
2023-04-29T08:53:14.913Z,7.97
2023-04-29T08:55:46.326Z,7.68
2023-04-29T08:58:14.984Z,7.63
2023-04-29T09:00:45.137Z,7.93
2023-04-29T09:03:27.698Z,7.95
2023-04-29T09:05:56.344Z,8.30
2023-04-29T09:08:24.376Z,7.03
2023-04-29T09:10:54.382Z,7.68
2023-04-29T09:13:24.430Z,8.20
2023-04-29T09:15:51.242Z,9.18
2023-04-29T09:18:50.551Z,7.90
2023-04-29T09:21:22.849Z,8.27
2023-04-29T09:23:52.488Z,8.07
2023-04-29T09:26:19.722Z,8.50
2023-04-29T09:28:47.869Z,8.10
2023-04-29T09:31:28.084Z,7.72
2023-04-29T09:33:57.191Z,7.78
2023-04-29T09:36:42.421Z,8.73
2023-04-29T09:39:15.405Z,8.13
2023-04-29T09:41:43.636Z,7.47
2023-04-29T09:44:11.297Z,7.40
2023-04-29T09:46:38.702Z,6.00
2023-04-29T09:49:23.993Z,6.82
2023-04-29T09:51:55.125Z,5.60
2023-04-29T09:54:28.509Z,6.15
2023-04-29T09:56:56.511Z,5.65
2023-04-29T09:59:24.442Z,5.57
2023-04-29T10:01:53.803Z,5.22
2023-04-29T10:04:24.404Z,5.55
2023-04-29T10:06:53.114Z,4.78
2023-04-29T10:09:21.066Z,5.28
2023-04-29T10:11:51.142Z,5.53
2023-04-29T10:14:19.992Z,3.88
2023-04-29T10:16:54.627Z,2.88
2023-04-29T10:19:36.014Z,2.40
2023-04-29T10:22:10.176Z,2.75
2023-04-29T10:24:37.985Z,1.65
2023-04-29T10:27:07.719Z,1.77
2023-04-29T10:29:37.201Z,1.73
2023-04-29T10:32:07.735Z,2.35
2023-04-29T10:34:37.254Z,2.60
2023-04-29T10:37:04.752Z,4.63
2023-04-29T10:39:39.912Z,3.50
2023-04-29T10:42:21.219Z,3.25
2023-04-29T10:45:20.129Z,4.10
2023-04-29T10:48:06.248Z,3.47
2023-04-29T10:50:36.691Z,3.70
2023-04-29T10:53:04.816Z,4.30
2023-04-29T10:55:32.209Z,4.53
2023-04-29T10:57:58.881Z,5.18
2023-04-29T11:00:30.668Z,4.70
2023-04-29T11:02:59.735Z,5.82
2023-04-29T11:05:37.347Z,5.38
2023-04-29T11:08:24.068Z,4.30
2023-04-29T11:10:54.445Z,4.30
2023-04-29T11:13:31.797Z,4.38
2023-04-29T11:16:12.091Z,3.53
2023-04-29T11:19:03.842Z,4.05
2023-04-29T11:21:32.635Z,3.38
2023-04-29T11:24:01.196Z,3.30
2023-04-29T11:26:28.012Z,3.17
2023-04-29T11:28:54.715Z,3.53
2023-04-29T11:31:21.614Z,3.67
2023-04-29T11:33:49.316Z,3.45
2023-04-29T11:36:16.018Z,3.92
2023-04-29T11:38:43.351Z,4.15
2023-04-29T11:41:11.837Z,4.30
2023-04-29T11:43:39.961Z,3.38
2023-04-29T11:46:13.837Z,3.75
2023-04-29T11:48:50.294Z,3.50
2023-04-29T11:51:19.144Z,4.13
2023-04-29T11:53:46.319Z,4.18
2023-04-29T11:56:13.294Z,4.88
2023-04-29T11:58:42.052Z,4.20
2023-04-29T12:01:08.797Z,4.60
2023-04-29T12:03:36.775Z,3.80
2023-04-29T12:06:03.943Z,4.25
2023-04-29T12:08:34.820Z,3.67
2023-04-29T12:11:01.844Z,3.75
2023-04-29T12:13:31.621Z,3.20
2023-04-29T12:15:59.119Z,3.45
2023-04-29T12:18:27.768Z,2.97
2023-04-29T12:20:58.455Z,3.22
2023-04-29T12:23:28.459Z,3.90
2023-04-29T12:25:57.189Z,3.53
2023-04-29T12:28:24.425Z,3.00
2023-04-29T12:30:53.984Z,3.45
2023-04-29T12:33:27.255Z,3.65
2023-04-29T12:35:59.431Z,4.30
2023-04-29T12:38:32.566Z,3.35
2023-04-29T12:41:02.131Z,4.00
2023-04-29T12:43:30.183Z,4.07
2023-04-29T12:46:04.548Z,4.00
2023-04-29T12:48:33.374Z,4.40
2023-04-29T12:51:01.433Z,4.55
2023-04-29T12:53:30.378Z,4.50
2023-04-29T12:55:57.745Z,5.15
2023-04-29T12:58:24.562Z,4.55
2023-04-29T13:00:51.655Z,5.60
2023-04-29T13:03:22.024Z,4.85
2023-04-29T13:05:52.641Z,4.38
2023-04-29T13:08:19.840Z,4.07
2023-04-29T13:10:49.671Z,4.45
2023-04-29T13:13:16.407Z,3.85
2023-04-29T13:15:43.057Z,3.88
2023-04-29T13:18:09.746Z,4.57
2023-04-29T13:20:41.608Z,4.45
2023-04-29T13:23:09.687Z,3.20
2023-04-29T13:25:36.535Z,3.83
2023-04-29T13:28:05.582Z,4.28
2023-04-29T13:30:33.288Z,3.90
2023-04-29T13:33:08.466Z,3.97
2023-04-29T13:35:40.344Z,4.45
2023-04-29T13:38:08.504Z,3.58
2023-04-29T13:40:39.249Z,3.88
2023-04-29T13:43:09.800Z,5.47
2023-04-29T13:45:41.154Z,4.82
2023-04-29T13:48:22.871Z,5.53
2023-04-29T13:51:34.324Z,4.38
2023-04-29T13:54:41.165Z,5.18
2023-04-29T13:57:26.667Z,5.82
2023-04-29T14:04:19.813Z,3.40
2023-04-29T14:06:46.491Z,3.70
2023-04-29T14:09:13.259Z,4.47
2023-04-29T14:11:40.010Z,4.60
2023-04-29T14:14:06.644Z,4.22
2023-04-29T14:16:33.408Z,4.15
2023-04-29T14:19:01.978Z,4.30
2023-04-29T14:21:32.005Z,4.78
2023-04-29T14:23:59.576Z,3.65
2023-04-29T14:26:28.671Z,3.30
2023-04-29T14:28:59.739Z,3.17
2023-04-29T14:31:28.454Z,4.10
2023-04-29T14:33:57.429Z,4.95
2023-04-29T14:36:25.074Z,4.25
2023-04-29T14:38:51.870Z,4.53
2023-04-29T14:41:18.667Z,4.47
2023-04-29T14:43:45.978Z,3.90
2023-04-29T14:46:12.905Z,5.18
2023-04-29T14:48:39.721Z,4.75
2023-04-29T14:51:06.579Z,3.95
2023-04-29T14:53:33.932Z,4.93
2023-04-29T14:56:01.145Z,4.90
2023-04-29T14:58:28.222Z,5.70
2023-04-29T15:00:54.979Z,5.13
2023-04-29T15:03:23.239Z,6.13
2023-04-29T15:05:51.501Z,5.60
2023-04-29T15:08:19.192Z,5.50
2023-04-29T15:10:47.750Z,4.85
2023-04-29T15:13:14.786Z,5.32
2023-04-29T15:15:41.937Z,4.80
2023-04-29T15:18:09.287Z,4.35
2023-04-29T15:20:37.049Z,3.38
2023-04-29T15:23:05.528Z,3.83
2023-04-29T15:25:34.718Z,2.53
2023-04-29T15:28:04.898Z,1.52
2023-04-29T15:30:32.339Z,1.75
2023-04-29T15:32:59.838Z,1.38
2023-04-29T15:35:26.771Z,1.15
2023-04-29T15:37:53.782Z,1.10
2023-04-29T15:40:20.420Z,1.25
2023-04-29T15:42:47.165Z,1.42
2023-04-29T15:45:14.036Z,2.20
2023-04-29T15:47:40.886Z,2.30
2023-04-29T15:50:09.636Z,1.95
2023-04-29T15:52:36.956Z,2.72
2023-04-29T15:55:07.240Z,2.03
2023-04-29T15:57:34.885Z,3.25
2023-04-29T16:00:01.766Z,3.17
2023-04-29T16:02:28.469Z,3.28
2023-04-29T16:04:55.163Z,3.22
2023-04-29T16:07:21.988Z,3.25
2023-04-29T16:09:48.622Z,3.22
2023-04-29T16:12:15.393Z,3.30
2023-04-29T16:14:41.952Z,3.85
2023-04-29T16:17:08.642Z,3.80
2023-04-29T16:19:37.081Z,3.30
2023-04-29T16:22:04.707Z,3.10
2023-04-29T16:24:31.525Z,3.40
2023-04-29T16:26:59.124Z,3.60
2023-04-29T16:29:26.128Z,3.85
2023-04-29T16:31:53.006Z,3.95
2023-04-29T16:34:20.309Z,3.40
2023-04-29T16:36:47.032Z,3.97
2023-04-29T16:39:14.118Z,2.63
2023-04-29T16:41:41.241Z,2.20
2023-04-29T16:44:08.577Z,2.20
2023-04-29T16:46:35.407Z,2.70
2023-04-29T16:49:02.193Z,2.55
2023-04-29T16:51:29.288Z,2.42
2023-04-29T16:53:56.091Z,4.07
2023-04-29T16:56:23.182Z,2.78
2023-04-29T16:58:50.032Z,3.55
2023-04-29T17:01:19.650Z,4.28
2023-04-29T17:03:50.591Z,4.18
2023-04-29T17:06:17.733Z,4.18
2023-04-29T17:08:45.596Z,4.15
2023-04-29T17:11:12.415Z,4.00
2023-04-29T17:13:39.101Z,4.13
2023-04-29T17:16:07.070Z,4.57
2023-04-29T17:18:34.295Z,5.13
2023-04-29T17:21:01.148Z,4.82
2023-04-29T17:23:27.837Z,4.85
2023-04-29T17:25:55.493Z,4.70
2023-04-29T17:28:22.359Z,5.68
2023-04-29T17:30:49.586Z,5.80
2023-04-29T17:33:17.540Z,3.90
2023-04-29T17:35:46.283Z,1.83
2023-04-29T17:38:13.158Z,2.00
2023-04-29T17:40:39.798Z,1.15
2023-04-29T17:43:06.496Z,1.30
2023-04-29T17:45:33.368Z,2.10
2023-04-29T17:48:00.270Z,2.63
2023-04-29T17:50:27.022Z,3.17
2023-04-29T17:52:57.189Z,4.63
2023-04-29T17:55:23.847Z,4.60
2023-04-29T17:57:50.498Z,3.70
2023-04-29T18:00:18.254Z,2.47
2023-04-29T18:02:44.965Z,2.80
2023-04-29T18:05:11.758Z,6.13
2023-04-29T18:07:38.396Z,2.92
2023-04-29T18:10:06.078Z,3.03
2023-04-29T18:12:33.172Z,2.65
2023-04-29T18:15:01.781Z,2.08
2023-04-29T18:17:28.503Z,2.13
2023-04-29T18:19:56.452Z,1.98
2023-04-29T18:22:23.407Z,3.30
2023-04-29T18:24:50.085Z,3.15
2023-04-29T18:27:17.836Z,2.90
2023-04-29T18:29:45.874Z,3.25
2023-04-29T18:32:12.655Z,3.90
2023-04-29T18:34:39.416Z,3.78
2023-04-29T18:37:06.056Z,4.65
2023-04-29T18:39:32.770Z,3.70
2023-04-29T18:41:59.429Z,3.08
2023-04-29T18:44:26.315Z,3.90
2023-04-29T18:46:54.614Z,10.27
2023-04-29T18:49:21.252Z,4.78
2023-04-29T18:51:47.926Z,5.38
2023-04-29T18:54:16.730Z,5.40
2023-04-29T18:56:46.665Z,5.10
2023-04-29T18:59:19.010Z,5.47
2023-04-29T19:01:47.337Z,4.38
2023-04-29T19:04:14.522Z,3.90
2023-04-29T19:06:42.369Z,4.70
2023-04-29T19:09:09.370Z,5.38
2023-04-29T19:11:36.289Z,4.07
2023-04-29T19:14:05.980Z,4.70
2023-04-29T19:16:39.822Z,4.65
2023-04-29T19:19:06.840Z,5.50
2023-04-29T19:21:33.753Z,4.20
2023-04-29T19:24:00.642Z,4.10
2023-04-29T19:26:27.350Z,4.13
2023-04-29T19:28:54.273Z,4.45
2023-04-29T19:31:21.673Z,4.25
2023-04-29T19:33:48.547Z,7.22
2023-04-29T19:36:15.245Z,5.07
2023-04-29T19:38:41.926Z,5.65
2023-04-29T19:41:08.816Z,7.65
2023-04-29T19:43:36.149Z,11.35
2023-04-29T19:46:02.957Z,11.48
2023-04-29T19:48:29.649Z,11.70
2023-04-29T19:50:59.579Z,9.55
2023-04-29T19:53:27.094Z,8.82
2023-04-29T19:55:54.268Z,8.82
2023-04-29T19:58:20.984Z,9.02
2023-04-29T20:00:48.198Z,6.93
2023-04-29T20:03:15.178Z,5.88
2023-04-29T20:05:42.042Z,5.95
2023-04-29T20:08:08.873Z,5.93
2023-04-29T20:10:35.518Z,6.63
2023-04-29T20:13:02.154Z,6.50
2023-04-29T20:15:28.815Z,5.97
2023-04-29T20:17:56.077Z,6.10
2023-04-29T20:20:24.291Z,7.28
2023-04-29T20:22:51.090Z,5.95
2023-04-29T20:25:18.352Z,6.07
2023-04-29T20:27:45.082Z,5.97
2023-04-29T20:30:11.955Z,4.95
2023-04-29T20:32:38.858Z,5.78
2023-04-29T20:35:05.890Z,5.57
2023-04-29T20:37:32.516Z,6.22
2023-04-29T20:39:59.769Z,5.43
2023-04-29T20:42:27.032Z,5.28
2023-04-29T20:44:53.634Z,5.70
2023-04-29T20:47:20.681Z,6.35
2023-04-29T20:49:47.310Z,10.60
2023-04-29T20:52:13.992Z,8.43
2023-04-29T20:54:40.728Z,9.93
2023-04-29T20:57:07.328Z,7.70
2023-04-29T20:59:34.522Z,7.22
2023-04-29T21:02:01.491Z,7.72
2023-04-29T21:04:28.362Z,6.38
2023-04-29T21:06:55.158Z,6.80
2023-04-29T21:09:22.161Z,6.93
2023-04-29T21:11:48.809Z,6.88
2023-04-29T21:14:15.521Z,7.60
2023-04-29T21:16:42.687Z,8.10
2023-04-29T21:19:09.505Z,8.55
2023-04-29T21:21:36.118Z,6.68
2023-04-29T21:24:03.083Z,7.50
2023-04-29T21:26:29.808Z,6.40
2023-04-29T21:28:56.449Z,8.43
2023-04-29T21:31:23.144Z,7.78
2023-04-29T21:33:49.855Z,7.78
2023-04-29T21:36:18.077Z,6.70
2023-04-29T21:38:45.090Z,6.88
2023-04-29T21:41:26.626Z,6.38
2023-04-29T21:43:59.413Z,7.85
2023-04-29T21:46:29.152Z,6.50
2023-04-29T21:48:57.841Z,6.30
2023-04-29T21:51:24.946Z,5.50
2023-04-29T21:53:51.612Z,5.85
2023-04-29T21:56:18.335Z,7.03
2023-04-29T21:58:45.425Z,7.68
2023-04-29T22:01:39.834Z,6.70
2023-04-29T22:04:06.903Z,6.32
2023-04-29T22:06:36.197Z,6.18
2023-04-29T22:09:03.283Z,7.97
2023-04-29T22:11:30.296Z,6.82
2023-04-29T22:13:57.166Z,7.95
2023-04-29T22:16:24.027Z,6.40
2023-04-29T22:18:51.348Z,6.47
2023-04-29T22:21:18.983Z,7.10
2023-04-29T22:23:45.736Z,6.47
2023-04-29T22:26:12.390Z,6.40
2023-04-29T22:28:39.274Z,7.13
2023-04-29T22:31:06.600Z,5.85
2023-04-29T22:33:34.646Z,5.97
2023-04-29T22:36:01.404Z,7.15
2023-04-29T22:38:29.417Z,8.35
2023-04-29T22:40:56.109Z,7.13
2023-04-29T22:43:22.729Z,7.22
2023-04-29T22:45:56.955Z,7.15
2023-04-29T22:48:26.645Z,6.97
2023-04-29T22:50:56.762Z,7.53
2023-04-29T22:53:24.967Z,6.55
2023-04-29T22:55:55.907Z,7.07
2023-04-29T22:58:25.356Z,7.63
2023-04-29T23:00:54.909Z,8.40
2023-04-29T23:03:21.683Z,6.68
2023-04-29T23:05:48.861Z,8.48
2023-04-29T23:08:15.736Z,8.05
2023-04-29T23:10:48.530Z,7.03
2023-04-29T23:13:15.858Z,7.32
2023-04-29T23:15:42.763Z,6.47
2023-04-29T23:18:09.551Z,8.07
2023-04-29T23:20:36.163Z,7.68
2023-04-29T23:23:02.951Z,8.05
2023-04-29T23:25:29.573Z,7.50
2023-04-29T23:27:56.268Z,7.65
2023-04-29T23:30:22.924Z,8.20
2023-04-29T23:32:49.681Z,8.77
2023-04-29T23:35:16.451Z,7.20
2023-04-29T23:37:43.082Z,6.88
2023-04-29T23:40:10.133Z,6.53
2023-04-29T23:42:39.788Z,7.45
2023-04-29T23:45:07.421Z,8.95
2023-04-29T23:47:36.595Z,7.70
2023-04-29T23:50:04.147Z,7.35
2023-04-29T23:52:30.870Z,7.57
2023-04-29T23:54:58.364Z,8.23
2023-04-29T23:57:24.975Z,7.70
2023-04-29T23:59:53.035Z,8.25
